Accueil
METAR-TAF:

METAR-TAF

Aéroports :

St Athan, Pays de Galles

latitude: 51-24N, longitude: 003-26W, altitude: 50 m

Observation

Le bulletin a été fait il y a 38 minutes, à 07:50 UTC
Vent 13 kt de ouest/sud-ouest
Température 8°C
Humidité 87%
Pression 1015 hPa
Visibilité 10 km ou plus

METAR: EGDX 170750Z AUTO 25013KT 9999 FEW250/// 08/06 Q1015

Heure: 08:28 (08:28 UTC)

Prévision

Le bulletin a été fait il y a 3 heures et 3 minutes, à 05:25 UTC
Prévision valable du 17 à 07 UTC au 17 à 15 UTC
Vent 8 kt de ouest/sud-ouest
Visibilité 10 km ou plus
Quelques nuages à une hauteur de 2200 ft
Temporairement
du 17 à 07 UTC au 17 à 10 UTC
Nuages épars à une hauteur de 2200 ft

TAF: EGDX 170525Z 1707/1715 24008KT 9999 FEW022 TEMPO 1707/1710 SCT022

Observations et prévisions météorologiques de plus de 4000 aéroports (messages METAR et TAF).

Les stations disponibles sont représentées par des disques jaunes et rouges sur la carte.

Passer la souris dessus pour voir le nom de la station.

Cliquer dessus pour voir les observations et prévisions météorologiques.

Pour changer de carte: cliquez sur les boutons verts avec une croix noire pour zoomer, sur le bouton vert avec un tiret pour effectuer un zoom arrière, ou sur les flèches vertes pour les cartes adjacentes.


METAR-TAF: